Time;durP1;ratioP1;P1;durP2;ratioP2;P2;SDS_P1;SDS_P2;PMS_P1;PMS_P2;Temp;Humidity;BMP_temperature;BMP_pressure;BME280_temperature;BME280_humidity;BME280_pressure;Samples;Min_cycle;Max_cycle;Signal;HPM_P1;HPM_P2
2022/04/01 00:01:16;;;;;;;;;;;12.40;97.50;;;;;;5019776;28;19992;-82
2022/04/01 00:03:41;;;;;;;;;;;12.40;97.80;;;;;;5019710;28;19921;-80
2022/04/01 00:06:07;;;;;;;;;;;12.40;97.80;;;;;;5019348;28;19909;-82
2022/04/01 00:08:32;;;;;;;;;;;12.30;98.00;;;;;;5018965;28;20392;-81
2022/04/01 00:10:58;;;;;;;;;;;12.30;98.20;;;;;;5019572;28;20392;-81
2022/04/01 00:13:24;;;;;;;;;;;12.30;98.10;;;;;;5022337;28;19909;-82
2022/04/01 00:15:50;;;;;;;;;;;12.30;97.60;;;;;;5019606;28;19921;-83
2022/04/01 00:18:15;;;;;;;;;;;12.30;97.90;;;;;;5019406;28;19935;-82
2022/04/01 00:20:41;;;;;;;;;;;9.50;96.70;;;;;;5020448;28;19909;-80
2022/04/01 00:23:07;;;;;;;;;;;12.30;97.70;;;;;;5021057;28;19920;-80
2022/04/01 00:25:32;;;;;;;;;;;12.30;97.70;;;;;;5006822;28;20299;-82
2022/04/01 00:27:58;;;;;;;;;;;12.40;97.20;;;;;;5005612;28;20297;-81
2022/04/01 00:30:24;;;;;;;;;;;12.40;97.30;;;;;;5025951;28;19984;-82
2022/04/01 00:32:49;;;;;;;;;;;12.40;96.20;;;;;;5028236;28;19909;-82
2022/04/01 00:35:15;;;;;;;;;;;12.40;96.00;;;;;;5003960;28;19916;-82
2022/04/01 00:37:41;;;;;;;;;;;12.40;96.30;;;;;;5004979;28;19909;-82
2022/04/01 00:40:07;;;;;;;;;;;12.40;96.40;;;;;;5005585;28;19916;-81
2022/04/01 00:42:33;;;;;;;;;;;12.40;96.90;;;;;;5024541;28;19909;-82
2022/04/01 00:44:58;;;;;;;;;;;12.30;97.20;;;;;;5025749;28;19919;-80
2022/04/01 00:47:25;;;;;;;;;;;12.40;97.10;;;;;;5028796;28;19917;-81
2022/04/01 00:49:51;;;;;;;;;;;12.30;97.50;;;;;;5029664;28;19999;-80
2022/04/01 00:52:19;;;;;;;;;;;12.20;98.20;;;;;;5028568;28;19960;-81
2022/04/01 00:54:44;;;;;;;;;;;12.20;98.80;;;;;;5030000;28;19935;-81
2022/04/01 00:57:11;;;;;;;;;;;12.10;98.20;;;;;;5007363;28;19909;-82
2022/04/01 00:59:37;;;;;;;;;;;12.10;98.20;;;;;;5004631;28;19913;-82
2022/04/01 01:02:03;;;;;;;;;;;12.10;98.20;;;;;;5025609;28;20213;-81
2022/04/01 01:04:29;;;;;;;;;;;12.20;97.00;;;;;;5031051;28;20222;-82
2022/04/01 01:06:55;;;;;;;;;;;12.30;96.40;;;;;;5034936;28;19909;-82
2022/04/01 01:09:22;;;;;;;;;;;12.40;95.50;;;;;;5040154;28;20022;-83
2022/04/01 01:11:54;;;;;;;;;;;12.40;96.40;;;;;;5035871;28;19944;-82
2022/04/01 01:14:31;;;;;;;;;;;12.40;95.30;;;;;;5030125;28;19924;-83
2022/04/01 01:16:57;;;;;;;;;;;12.50;94.90;;;;;;5033774;28;19924;-83
2022/04/01 01:19:23;;;;;;;;;;;12.50;95.10;;;;;;5027135;28;20518;-83
2022/04/01 01:21:53;;;;;;;;;;;12.60;94.90;;;;;;5034696;28;19909;-83
2022/04/01 01:24:28;;;;;;;;;;;12.60;94.00;;;;;;5053336;28;19897;-83
2022/04/01 01:26:56;;;;;;;;;;;12.70;94.40;;;;;;5057358;28;19909;-84
2022/04/01 01:29:23;;;;;;;;;;;12.80;93.60;;;;;;5056851;28;19952;-83
2022/04/01 01:31:49;;;;;;;;;;;12.80;93.90;;;;;;5040148;28;19920;-85
2022/04/01 01:34:15;;;;;;;;;;;12.70;94.20;;;;;;5028112;28;19909;-86
2022/04/01 01:37:00;;;;;;;;;;;12.70;93.90;;;;;;5022169;28;19901;-84
2022/04/01 01:39:25;;;;;;;;;;;12.80;92.90;;;;;;5056640;28;19913;-85
2022/04/01 01:41:57;;;;;;;;;;;12.80;93.40;;;;;;5059934;28;19916;-84
2022/04/01 01:44:23;;;;;;;;;;;12.80;93.00;;;;;;5055047;28;20502;-85
2022/04/01 01:46:50;;;;;;;;;;;12.80;93.10;;;;;;5057083;28;19898;-84
2022/04/01 01:55:23;;;;;;;;;;;12.80;92.60;;;;;;5055851;28;19917;-83
2022/04/01 01:57:49;;;;;;;;;;;12.80;92.20;;;;;;5059475;28;19897;-84
2022/04/01 02:00:20;;;;;;;;;;;12.90;92.10;;;;;;5038430;28;19978;-83
2022/04/01 02:02:45;;;;;;;;;;;12.90;92.30;;;;;;5042102;28;19904;-84
2022/04/01 02:05:11;;;;;;;;;;;13.00;91.10;;;;;;5057739;28;19936;-83
2022/04/01 02:07:37;;;;;;;;;;;13.00;90.70;;;;;;5057484;28;19909;-82
2022/04/01 02:10:03;;;;;;;;;;;13.10;91.40;;;;;;5042210;28;19920;-86
2022/04/01 02:12:30;;;;;;;;;;;13.10;91.30;;;;;;5026998;28;20379;-83
2022/04/01 02:14:56;;;;;;;;;;;13.00;91.00;;;;;;5045759;28;20020;-84
2022/04/01 02:17:22;;;;;;;;;;;13.10;90.70;;;;;;5034719;28;19940;-86
2022/04/01 02:19:49;;;;;;;;;;;13.10;90.80;;;;;;5044327;28;19935;-83
2022/04/01 02:22:15;;;;;;;;;;;13.10;90.60;;;;;;5031504;28;19984;-83
2022/04/01 02:24:41;;;;;;;;;;;13.10;90.30;;;;;;5023198;28;19909;-86
2022/04/01 02:27:07;;;;;;;;;;;13.10;90.10;;;;;;5021305;28;19985;-85
2022/04/01 02:29:34;;;;;;;;;;;13.20;89.80;;;;;;5019611;28;20327;-85
2022/04/01 02:31:59;;;;;;;;;;;13.20;90.10;;;;;;5005736;28;19989;-84
2022/04/01 02:34:26;;;;;;;;;;;13.20;89.90;;;;;;5000715;28;20438;-84
2022/04/01 02:36:53;;;;;;;;;;;13.20;90.30;;;;;;5037087;28;19971;-84
2022/04/01 02:39:19;;;;;;;;;;;13.30;89.60;;;;;;5038494;28;19909;-83
2022/04/01 02:41:45;;;;;;;;;;;13.30;89.50;;;;;;5030047;28;20277;-83
2022/04/01 02:44:12;;;;;;;;;;;13.40;88.70;;;;;;5030006;28;19995;-82
2022/04/01 02:46:43;;;;;;;;;;;13.40;88.10;;;;;;5020807;28;20135;-84
2022/04/01 02:49:10;;;;;;;;;;;13.40;89.00;;;;;;5020074;28;20395;-82
2022/04/01 02:51:37;;;;;;;;;;;13.30;90.00;;;;;;5018223;28;19917;-82
2022/04/01 02:54:03;;;;;;;;;;;13.40;88.60;;;;;;5034894;28;20039;-82
2022/04/01 02:56:30;;;;;;;;;;;13.30;89.40;;;;;;5020044;28;19909;-83
2022/04/01 02:58:56;;;;;;;;;;;13.30;89.60;;;;;;5019959;28;19944;-84
2022/04/01 03:01:22;;;;;;;;;;;13.30;89.50;;;;;;5019123;28;19913;-84
2022/04/01 03:03:51;;;;;;;;;;;13.20;90.10;;;;;;5001749;28;20350;-84
2022/04/01 03:06:17;;;;;;;;;;;13.20;89.40;;;;;;5020010;28;19936;-83
2022/04/01 03:08:43;;;;;;;;;;;13.20;89.60;;;;;;5002188;28;19913;-83
2022/04/01 03:11:09;;;;;;;;;;;13.10;90.20;;;;;;4998177;28;19917;-84
2022/04/01 03:13:35;;;;;;;;;;;13.20;90.00;;;;;;5018172;28;20225;-84
2022/04/01 03:16:02;;;;;;;;;;;13.10;90.00;;;;;;5019471;28;19940;-84
2022/04/01 03:18:28;;;;;;;;;;;13.10;90.00;;;;;;5004146;28;19917;-83
2022/04/01 03:20:53;;;;;;;;;;;13.10;90.00;;;;;;5004053;28;20359;-84
2022/04/01 03:23:19;;;;;;;;;;;13.10;90.40;;;;;;5021064;28;19910;-83
2022/04/01 03:25:45;;;;;;;;;;;13.10;90.70;;;;;;5002562;28;19966;-83
2022/04/01 03:28:13;;;;;;;;;;;13.00;90.90;;;;;;4998983;28;19910;-81
2022/04/01 03:30:38;;;;;;;;;;;13.00;90.80;;;;;;5026244;28;20125;-83
2022/04/01 03:33:04;;;;;;;;;;;13.00;91.20;;;;;;5000112;28;20004;-83
2022/04/01 03:35:30;;;;;;;;;;;12.90;91.30;;;;;;5017647;28;19935;-83
2022/04/01 03:37:55;;;;;;;;;;;12.90;91.40;;;;;;5020490;28;20127;-82
2022/04/01 03:40:21;;;;;;;;;;;12.90;91.80;;;;;;5033615;28;19967;-84
2022/04/01 03:42:50;;;;;;;;;;;14.70;92.50;;;;;;5035110;28;19897;-84
2022/04/01 03:45:17;;;;;;;;;;;12.70;92.80;;;;;;5013407;28;19917;-85
2022/04/01 03:47:51;;;;;;;;;;;12.60;93.00;;;;;;5004378;28;20145;-84
2022/04/01 03:50:20;;;;;;;;;;;12.50;93.30;;;;;;5022153;28;19913;-82
2022/04/01 03:52:47;;;;;;;;;;;12.40;93.10;;;;;;5003880;28;20315;-82
2022/04/01 03:55:12;;;;;;;;;;;12.20;94.20;;;;;;4997149;28;19963;-83
2022/04/01 03:57:39;;;;;;;;;;;12.10;94.40;;;;;;5017430;28;20004;-81
2022/04/01 04:00:12;;;;;;;;;;;12.00;95.50;;;;;;5019595;28;19917;-83
2022/04/01 04:02:40;;;;;;;;;;;11.90;95.80;;;;;;5001814;28;19925;-82
2022/04/01 04:05:07;;;;;;;;;;;11.80;95.20;;;;;;5019295;28;20014;-83
2022/04/01 04:07:33;;;;;;;;;;;11.70;95.00;;;;;;5006952;28;19964;-82
2022/04/01 04:09:59;;;;;;;;;;;11.80;95.50;;;;;;5036329;28;19917;-82
2022/04/01 04:12:42;;;;;;;;;;;11.60;96.40;;;;;;5042616;28;19924;-83
2022/04/01 04:15:08;;;;;;;;;;;11.50;96.90;;;;;;5042662;28;19944;-84
2022/04/01 04:17:37;;;;;;;;;;;11.40;97.30;;;;;;5044239;28;19924;-84
2022/04/01 04:20:09;;;;;;;;;;;11.40;97.80;;;;;;5049109;28;19920;-83
2022/04/01 04:22:55;;;;;;;;;;;11.40;97.70;;;;;;5047470;28;19909;-83
2022/04/01 04:25:21;;;;;;;;;;;11.40;96.70;;;;;;5052506;28;20149;-84
2022/04/01 04:27:51;;;;;;;;;;;11.40;98.50;;;;;;5045215;28;19909;-83
2022/04/01 04:30:17;;;;;;;;;;;11.30;98.00;;;;;;5033622;28;19993;-83
2022/04/01 04:32:47;;;;;;;;;;;11.30;97.50;;;;;;5055104;28;19932;-86
2022/04/01 04:35:14;;;;;;;;;;;11.30;97.70;;;;;;5054027;28;19977;-83
2022/04/01 04:37:47;;;;;;;;;;;11.20;98.40;;;;;;5055179;28;19901;-85
2022/04/01 04:40:15;;;;;;;;;;;11.20;98.70;;;;;;5055508;28;19913;-84
2022/04/01 04:42:45;;;;;;;;;;;11.20;97.80;;;;;;5037835;28;19904;-83
2022/04/01 04:48:09;;;;;;;;;;;11.20;95.50;;;;;;5009123;28;19985;-84
2022/04/01 04:50:35;;;;;;;;;;;11.20;96.20;;;;;;5031512;28;19913;-84
2022/04/01 04:53:03;;;;;;;;;;;11.20;96.20;;;;;;5051711;28;19901;-84
2022/04/01 04:55:31;;;;;;;;;;;11.30;96.50;;;;;;5053945;28;19972;-85
2022/04/01 04:57:57;;;;;;;;;;;11.20;96.50;;;;;;5033519;28;20449;-84
2022/04/01 05:00:22;;;;;;;;;;;11.30;95.70;;;;;;5038569;28;19943;-85
2022/04/01 05:02:48;;;;;;;;;;;11.30;94.60;;;;;;5040670;28;19936;-83
2022/04/01 05:05:26;;;;;;;;;;;11.40;94.60;;;;;;5053222;28;19936;-84
2022/04/01 05:08:24;;;;;;;;;;;11.80;93.90;;;;;;5035608;28;20460;-85
2022/04/01 05:10:55;;;;;;;;;;;11.60;93.30;;;;;;4946550;28;19918;-87
2022/04/01 05:13:22;;;;;;;;;;;11.70;92.90;;;;;;4954077;29;19911;-85
2022/04/01 05:15:58;;;;;;;;;;;11.80;92.40;;;;;;4964380;29;19911;-85
2022/04/01 05:18:38;;;;;;;;;;;12.00;91.60;;;;;;4975822;29;19902;-83
2022/04/01 05:21:04;;;;;;;;;;;12.10;91.30;;;;;;4976739;28;19910;-84
2022/04/01 05:23:48;;;;;;;;;;;12.20;90.70;;;;;;4976090;29;19899;-84
2022/04/01 05:26:16;;;;;;;;;;;12.30;90.40;;;;;;4975600;29;19919;-85
2022/04/01 05:28:46;;;;;;;;;;;12.30;90.90;;;;;;4974520;29;19917;-85
2022/04/01 05:31:20;;;;;;;;;;;12.40;91.10;;;;;;4976663;29;19928;-84
2022/04/01 05:33:51;;;;;;;;;;;12.40;91.00;;;;;;4975469;29;19915;-85
2022/04/01 05:36:17;;;;;;;;;;;13.50;90.00;;;;;;4963484;29;19941;-85
2022/04/01 05:38:43;;;;;;;;;;;12.50;90.30;;;;;;4960871;29;20161;-84
2022/04/01 05:41:10;;;;;;;;;;;12.50;90.40;;;;;;4946943;29;19977;-84
2022/04/01 05:43:36;;;;;;;;;;;12.60;89.20;;;;;;4957737;29;19910;-85
2022/04/01 05:46:03;;;;;;;;;;;12.70;88.80;;;;;;4960433;28;19994;-84
2022/04/01 05:48:29;;;;;;;;;;;12.80;87.80;;;;;;5032276;28;20095;-84
2022/04/01 05:50:55;;;;;;;;;;;13.00;87.70;;;;;;4994949;28;19923;-86
2022/04/01 05:53:21;;;;;;;;;;;12.80;86.50;;;;;;5004263;28;19910;-84
2022/04/01 05:55:48;;;;;;;;;;;13.30;86.80;;;;;;4975594;28;19979;-86
2022/04/01 05:58:14;;;;;;;;;;;13.40;86.10;;;;;;4981147;28;20439;-85
2022/04/01 06:00:49;;;;;;;;;;;13.60;86.10;;;;;;4983464;28;19910;-86
2022/04/01 06:03:21;;;;;;;;;;;14.90;86.40;;;;;;5006091;28;19909;-84
2022/04/01 06:05:58;;;;;;;;;;;13.90;86.60;;;;;;5019085;28;20221;-83
2022/04/01 06:08:33;;;;;;;;;;;13.80;85.60;;;;;;5017732;28;19913;-84
2022/04/01 06:11:05;;;;;;;;;;;13.90;85.40;;;;;;5016826;28;19967;-85
2022/04/01 06:13:49;;;;;;;;;;;14.10;84.30;;;;;;5024706;28;19956;-85
2022/04/01 06:16:27;;;;;;;;;;;14.20;83.50;;;;;;5039538;28;19967;-84
2022/04/01 06:19:03;;;;;;;;;;;14.10;83.90;;;;;;5014020;28;19913;-83
2022/04/01 06:21:36;;;;;;;;;;;14.00;84.30;;;;;;4999862;28;20623;-84
2022/04/01 06:24:09;;;;;;;;;;;14.00;84.80;;;;;;5000043;28;20623;-84
2022/04/01 06:26:38;;;;;;;;;;;13.90;84.20;;;;;;5017382;28;20169;-83
2022/04/01 06:29:03;;;;;;;;;;;13.80;85.00;;;;;;5020388;28;19975;-83
2022/04/01 06:31:30;;;;;;;;;;;13.60;85.80;;;;;;5020586;28;20597;-82
2022/04/01 06:34:14;;;;;;;;;;;13.40;87.70;;;;;;5006355;28;19921;-83
2022/04/01 06:36:44;;;;;;;;;;;13.00;90.10;;;;;;5031315;28;19952;-83
2022/04/01 06:39:10;;;;;;;;;;;12.60;90.10;;;;;;5032063;28;20387;-82
2022/04/01 06:41:47;;;;;;;;;;;12.40;89.70;;;;;;5016275;28;19948;-82
2022/04/01 06:44:13;;;;;;;;;;;12.10;90.30;;;;;;5030377;28;19913;-82
2022/04/01 06:46:39;;;;;;;;;;;11.70;90.80;;;;;;5032011;28;19909;-83
2022/04/01 06:49:08;;;;;;;;;;;11.20;91.70;;;;;;5028613;28;19909;-82
2022/04/01 06:51:35;;;;;;;;;;;11.90;92.50;;;;;;5010986;28;19917;-83
2022/04/01 06:54:00;;;;;;;;;;;11.00;93.20;;;;;;5011147;28;19913;-84
2022/04/01 06:56:31;;;;;;;;;;;11.30;94.80;;;;;;5023711;28;19997;-85
2022/04/01 06:58:58;;;;;;;;;;;10.60;95.70;;;;;;5045110;28;20039;-83
2022/04/01 07:01:25;;;;;;;;;;;8.90;95.80;;;;;;5033440;28;20044;-83
2022/04/01 07:03:52;;;;;;;;;;;10.30;96.70;;;;;;5024495;28;20267;-83
2022/04/01 07:06:24;;;;;;;;;;;10.10;97.00;;;;;;5029110;28;19921;-84
2022/04/01 07:08:50;;;;;;;;;;;7.60;96.40;;;;;;4996663;28;19914;-84
2022/04/01 07:11:23;;;;;;;;;;;11.20;98.10;;;;;;5005234;28;20059;-84
2022/04/01 07:13:50;;;;;;;;;;;10.00;97.70;;;;;;5026801;28;19910;-84
2022/04/01 07:16:16;;;;;;;;;;;10.00;97.90;;;;;;5019858;28;19917;-84
2022/04/01 07:18:41;;;;;;;;;;;9.90;97.90;;;;;;5040260;28;19940;-84
2022/04/01 07:21:10;;;;;;;;;;;10.00;98.10;;;;;;5027387;28;20404;-84
2022/04/01 07:23:37;;;;;;;;;;;9.90;98.40;;;;;;5025784;28;19916;-84
2022/04/01 07:26:03;;;;;;;;;;;9.80;98.50;;;;;;5035817;28;19920;-86
2022/04/01 07:28:28;;;;;;;;;;;10.00;98.80;;;;;;5030940;28;19910;-85
2022/04/01 07:30:55;;;;;;;;;;;10.10;98.60;;;;;;5030099;28;19913;-85
2022/04/01 07:33:21;;;;;;;;;;;10.30;98.20;;;;;;5012877;28;19924;-83
2022/04/01 07:35:48;;;;;;;;;;;10.30;97.50;;;;;;5008884;28;20234;-84
2022/04/01 07:38:18;;;;;;;;;;;10.40;97.30;;;;;;5012226;28;19967;-84
2022/04/01 07:40:58;;;;;;;;;;;12.40;97.70;;;;;;5021065;28;20005;-84
2022/04/01 07:43:25;;;;;;;;;;;10.90;97.30;;;;;;5016916;28;19910;-84
2022/04/01 07:45:51;;;;;;;;;;;11.20;97.30;;;;;;5015284;28;19945;-84
2022/04/01 07:48:22;;;;;;;;;;;11.40;96.70;;;;;;4986022;28;19924;-84
2022/04/01 07:50:48;;;;;;;;;;;11.60;96.40;;;;;;5016432;28;19917;-85
2022/04/01 07:53:13;;;;;;;;;;;11.90;95.70;;;;;;4997762;28;20397;-87
2022/04/01 07:55:39;;;;;;;;;;;12.10;95.40;;;;;;5000808;28;20307;-88
2022/04/01 07:58:04;;;;;;;;;;;12.40;94.40;;;;;;5001990;28;20012;-88
2022/04/01 08:00:30;;;;;;;;;;;12.60;93.90;;;;;;4983784;28;19914;-88
2022/04/01 08:02:57;;;;;;;;;;;12.70;92.90;;;;;;4994446;28;19921;-86
2022/04/01 08:05:22;;;;;;;;;;;12.80;93.00;;;;;;5015911;28;20168;-88
2022/04/01 08:07:49;;;;;;;;;;;13.00;93.30;;;;;;5002943;28;19909;-89
2022/04/01 08:10:15;;;;;;;;;;;13.10;93.10;;;;;;4983118;28;20016;-88
2022/04/01 08:12:42;;;;;;;;;;;13.30;92.30;;;;;;4983421;28;20000;-88
2022/04/01 08:15:08;;;;;;;;;;;13.50;91.90;;;;;;5001093;28;20407;-88
2022/04/01 08:17:34;;;;;;;;;;;13.60;90.80;;;;;;5000704;28;19913;-85
2022/04/01 08:19:59;;;;;;;;;;;13.60;89.80;;;;;;4993806;28;20442;-88
2022/04/01 08:22:25;;;;;;;;;;;13.60;90.10;;;;;;5016034;28;20012;-87
2022/04/01 08:24:50;;;;;;;;;;;13.60;88.70;;;;;;4990636;28;19936;-87
2022/04/01 08:27:16;;;;;;;;;;;13.60;89.50;;;;;;4998058;28;19955;-86
2022/04/01 08:29:41;;;;;;;;;;;13.60;89.20;;;;;;5014506;28;20561;-84
2022/04/01 08:32:07;;;;;;;;;;;13.70;88.80;;;;;;5005065;28;19920;-85
2022/04/01 08:34:33;;;;;;;;;;;13.90;87.90;;;;;;5000921;28;19914;-85
2022/04/01 08:36:59;;;;;;;;;;;12.10;86.90;;;;;;4988377;28;19997;-85
2022/04/01 08:39:24;;;;;;;;;;;13.80;86.20;;;;;;5001107;28;19917;-85
2022/04/01 08:41:50;;;;;;;;;;;13.70;88.60;;;;;;4998347;28;19910;-85
2022/04/01 08:44:16;;;;;;;;;;;13.30;89.00;;;;;;4992257;28;20399;-84
2022/04/01 08:46:41;;;;;;;;;;;13.30;89.00;;;;;;5017966;28;19910;-85
2022/04/01 08:49:07;;;;;;;;;;;13.30;89.30;;;;;;5002558;28;19969;-84
2022/04/01 08:51:33;;;;;;;;;;;13.40;89.00;;;;;;5019520;28;19929;-85
2022/04/01 08:53:58;;;;;;;;;;;13.20;89.80;;;;;;5021061;28;19913;-84
2022/04/01 08:56:24;;;;;;;;;;;13.30;90.20;;;;;;5002965;28;20358;-86
2022/04/01 08:58:50;;;;;;;;;;;13.20;89.30;;;;;;4993728;28;19920;-85
2022/04/01 09:01:16;;;;;;;;;;;13.40;89.60;;;;;;5002788;28;20355;-81
2022/04/01 09:03:42;;;;;;;;;;;13.40;89.90;;;;;;5007513;28;19913;-84
2022/04/01 09:06:08;;;;;;;;;;;13.50;90.30;;;;;;5023679;28;19967;-83
2022/04/01 09:08:35;;;;;;;;;;;13.60;90.30;;;;;;5005196;28;20015;-85
2022/04/01 09:11:05;;;;;;;;;;;13.60;90.30;;;;;;5021849;28;19917;-85
2022/04/01 09:13:48;;;;;;;;;;;13.60;90.50;;;;;;5021433;28;20307;-83
2022/04/01 09:16:33;;;;;;;;;;;13.70;90.00;;;;;;5024034;28;19913;-83
2022/04/01 09:19:09;;;;;;;;;;;13.70;89.50;;;;;;5021217;28;20380;-84
2022/04/01 09:21:39;;;;;;;;;;;13.60;90.20;;;;;;5002557;28;19910;-84
2022/04/01 09:24:07;;;;;;;;;;;13.50;90.50;;;;;;5021730;28;20371;-84
2022/04/01 09:26:32;;;;;;;;;;;13.50;91.30;;;;;;5002232;28;19920;-83
2022/04/01 09:28:59;;;;;;;;;;;13.40;92.10;;;;;;5021555;28;19909;-81
2022/04/01 09:31:25;;;;;;;;;;;13.30;92.10;;;;;;5001538;28;19918;-84
2022/04/01 09:33:51;;;;;;;;;;;13.20;92.70;;;;;;5022646;28;20197;-85
2022/04/01 09:36:29;;;;;;;;;;;13.00;93.20;;;;;;5022222;28;20323;-82
2022/04/01 09:39:03;;;;;;;;;;;12.80;93.40;;;;;;5005684;28;20145;-83
2022/04/01 09:41:39;;;;;;;;;;;12.40;94.20;;;;;;5022017;28;19916;-83
2022/04/01 09:44:11;;;;;;;;;;;12.40;95.00;;;;;;5003798;28;19952;-85
2022/04/01 09:46:42;;;;;;;;;;;12.30;95.00;;;;;;5017975;28;19910;-85
2022/04/01 09:49:08;;;;;;;;;;;12.30;94.90;;;;;;5003876;28;20573;-89
2022/04/01 09:51:34;;;;;;;;;;;12.30;95.80;;;;;;5004575;28;20350;-87
2022/04/01 09:54:04;;;;;;;;;;;12.20;94.90;;;;;;5001075;28;20632;-86
2022/04/01 09:56:37;;;;;;;;;;;12.20;94.60;;;;;;5020282;28;20410;-87
2022/04/01 09:59:04;;;;;;;;;;;11.00;94.50;;;;;;5004445;28;20099;-86
2022/04/01 10:01:31;;;;;;;;;;;12.30;95.50;;;;;;5011859;28;20549;-83
2022/04/01 10:03:57;;;;;;;;;;;12.30;94.50;;;;;;5016014;28;20328;-82
2022/04/01 10:06:23;;;;;;;;;;;12.20;95.10;;;;;;5008052;28;19956;-84
2022/04/01 10:08:50;;;;;;;;;;;12.20;94.60;;;;;;5003887;28;19909;-82
2022/04/01 10:11:16;;;;;;;;;;;12.20;94.50;;;;;;5001856;28;19960;-83
2022/04/01 10:13:42;;;;;;;;;;;12.30;95.30;;;;;;4984431;28;19963;-84
2022/04/01 10:16:09;;;;;;;;;;;12.30;95.80;;;;;;4983922;28;19913;-87
2022/04/01 10:18:35;;;;;;;;;;;12.50;95.70;;;;;;4999132;28;20390;-85
2022/04/01 10:21:03;;;;;;;;;;;12.50;95.40;;;;;;4987124;28;20324;-86
2022/04/01 10:23:29;;;;;;;;;;;12.70;96.50;;;;;;5003452;28;20004;-84
2022/04/01 10:26:04;;;;;;;;;;;12.60;95.80;;;;;;5000675;28;19909;-84
2022/04/01 10:28:29;;;;;;;;;;;12.60;95.60;;;;;;5000458;28;20290;-83
2022/04/01 10:30:59;;;;;;;;;;;12.50;95.30;;;;;;5000831;28;19924;-85
2022/04/01 10:33:26;;;;;;;;;;;12.60;95.10;;;;;;4996291;28;19931;-83
2022/04/01 10:35:52;;;;;;;;;;;12.60;95.30;;;;;;5000772;28;20395;-84
2022/04/01 10:38:19;;;;;;;;;;;12.60;94.80;;;;;;5000401;28;19921;-84
2022/04/01 10:40:49;;;;;;;;;;;12.60;95.20;;;;;;5000778;28;19988;-86
2022/04/01 10:43:16;;;;;;;;;;;12.60;95.10;;;;;;4982789;28;19936;-86
2022/04/01 10:45:56;;;;;;;;;;;12.70;95.10;;;;;;4983910;28;19910;-86
2022/04/01 10:54:06;;;;;;;;;;;12.50;93.90;;;;;;4994821;28;20107;-86
2022/04/01 10:56:38;;;;;;;;;;;12.50;93.80;;;;;;4998835;28;19943;-84
2022/04/01 10:59:18;;;;;;;;;;;12.50;94.70;;;;;;4996011;28;20264;-84
2022/04/01 11:01:49;;;;;;;;;;;12.50;95.20;;;;;;5015531;28;19979;-85
2022/04/01 11:04:15;;;;;;;;;;;12.50;94.90;;;;;;5010401;28;19917;-85
2022/04/01 11:06:51;;;;;;;;;;;12.50;94.70;;;;;;5018001;28;19916;-85
2022/04/01 11:09:36;;;;;;;;;;;12.50;95.40;;;;;;5020737;28;19915;-83
2022/04/01 11:12:21;;;;;;;;;;;12.50;94.90;;;;;;5021078;28;19924;-82
2022/04/01 11:14:53;;;;;;;;;;;12.60;93.20;;;;;;5014965;28;19948;-84
2022/04/01 11:17:22;;;;;;;;;;;12.60;92.20;;;;;;5015603;28;20469;-84
2022/04/01 11:20:07;;;;;;;;;;;12.70;92.20;;;;;;5006970;28;19909;-83
2022/04/01 11:22:33;;;;;;;;;;;12.60;90.50;;;;;;5019573;28;20007;-86
2022/04/01 11:24:59;;;;;;;;;;;12.70;90.60;;;;;;5019581;28;20371;-85
2022/04/01 11:27:25;;;;;;;;;;;12.80;90.50;;;;;;5030314;28;20180;-86
2022/04/01 11:30:09;;;;;;;;;;;12.90;90.00;;;;;;5037727;28;20351;-84
2022/04/01 11:32:35;;;;;;;;;;;12.80;86.50;;;;;;5021279;28;20117;-85
2022/04/01 11:35:02;;;;;;;;;;;12.90;87.70;;;;;;5020760;28;20145;-87
2022/04/01 11:37:28;;;;;;;;;;;12.90;88.10;;;;;;5003509;28;20347;-87
2022/04/01 11:40:05;;;;;;;;;;;12.90;89.30;;;;;;5005705;28;19917;-86
2022/04/01 11:42:32;;;;;;;;;;;12.90;89.60;;;;;;5002453;28;19920;-87
2022/04/01 11:44:59;;;;;;;;;;;13.90;88.50;;;;;;4998619;28;19917;-87
2022/04/01 11:47:34;;;;;;;;;;;13.10;88.80;;;;;;5016851;28;19921;-88
2022/04/01 11:50:13;;;;;;;;;;;13.20;88.30;;;;;;5019511;28;19971;-87
2022/04/01 11:52:43;;;;;;;;;;;13.20;88.60;;;;;;5019919;28;20273;-87
2022/04/01 11:55:17;;;;;;;;;;;13.20;88.80;;;;;;5021585;28;20193;-83
2022/04/01 11:57:43;;;;;;;;;;;13.30;88.00;;;;;;5005577;28;20343;-85
2022/04/01 12:00:22;;;;;;;;;;;13.10;88.20;;;;;;5020049;28;20519;-87
2022/04/01 12:02:48;;;;;;;;;;;13.00;88.00;;;;;;5028419;28;19909;-87
2022/04/01 12:05:14;;;;;;;;;;;13.00;87.70;;;;;;4998515;28;19921;-87
2022/04/01 12:10:52;;;;;;;;;;;13.00;87.90;;;;;;4957240;28;20317;-88
2022/04/01 12:13:17;;;;;;;;;;;13.30;88.30;;;;;;4941410;28;19914;-87
2022/04/01 12:15:44;;;;;;;;;;;11.60;86.20;;;;;;4958193;28;19921;-85
2022/04/01 12:18:11;;;;;;;;;;;13.70;87.00;;;;;;4957634;28;20719;-88
2022/04/01 12:20:38;;;;;;;;;;;13.80;83.70;;;;;;4961545;28;19918;-86
2022/04/01 12:23:04;;;;;;;;;;;13.80;87.20;;;;;;4961815;28;20162;-88
2022/04/01 12:25:30;;;;;;;;;;;14.60;88.90;;;;;;4962594;28;20001;-87
2022/04/01 12:27:58;;;;;;;;;;;14.10;89.50;;;;;;4961651;28;20121;-86
2022/04/01 12:30:27;;;;;;;;;;;14.00;87.30;;;;;;4961096;28;19918;-86
2022/04/01 12:32:56;;;;;;;;;;;14.20;87.80;;;;;;4944801;28;20193;-88
2022/04/01 12:35:24;;;;;;;;;;;13.90;85.30;;;;;;4972367;28;19911;-86
2022/04/01 12:38:06;;;;;;;;;;;13.70;87.60;;;;;;4963488;28;19917;-86
2022/04/01 12:40:33;;;;;;;;;;;13.50;90.00;;;;;;4965900;28;20452;-86
2022/04/01 12:42:59;;;;;;;;;;;13.50;90.20;;;;;;5006404;28;19920;-85
2022/04/01 12:45:24;;;;;;;;;;;13.30;89.30;;;;;;5038668;28;19939;-84
2022/04/01 12:47:50;;;;;;;;;;;13.10;89.60;;;;;;5007343;28;19921;-84
2022/04/01 12:50:32;;;;;;;;;;;13.20;90.50;;;;;;5022860;28;20210;-84
2022/04/01 12:53:07;;;;;;;;;;;13.20;90.00;;;;;;5022436;28;19913;-84
2022/04/01 12:55:33;;;;;;;;;;;13.00;89.30;;;;;;5004103;28;19920;-84
2022/04/01 12:57:59;;;;;;;;;;;13.20;89.60;;;;;;5022105;28;19910;-81
2022/04/01 13:00:26;;;;;;;;;;;13.20;88.80;;;;;;5029612;28;20460;-83
2022/04/01 13:02:51;;;;;;;;;;;13.20;87.50;;;;;;5004656;28;19920;-83
2022/04/01 13:05:18;;;;;;;;;;;13.20;88.30;;;;;;5006298;28;19925;-83
2022/04/01 13:07:43;;;;;;;;;;;13.30;88.00;;;;;;5021370;28;19913;-82
2022/04/01 13:10:12;;;;;;;;;;;13.40;87.50;;;;;;5021451;28;19913;-82
2022/04/01 13:12:39;;;;;;;;;;;13.60;86.00;;;;;;5021473;28;19913;-82
2022/04/01 13:15:06;;;;;;;;;;;13.80;86.20;;;;;;5022039;28;20317;-84
2022/04/01 13:17:49;;;;;;;;;;;14.10;84.70;;;;;;5003486;28;20076;-84
2022/04/01 13:20:15;;;;;;;;;;;14.30;83.20;;;;;;5019897;28;19916;-83
2022/04/01 13:22:42;;;;;;;;;;;14.40;83.50;;;;;;5022195;28;20118;-81
2022/04/01 13:25:12;;;;;;;;;;;14.60;83.10;;;;;;5021030;28;19979;-82
2022/04/01 13:27:38;;;;;;;;;;;14.50;79.30;;;;;;5002984;28;20387;-82
2022/04/01 13:30:04;;;;;;;;;;;14.50;79.40;;;;;;5020404;28;20263;-80
2022/04/01 13:32:30;;;;;;;;;;;14.50;79.70;;;;;;5021680;28;19924;-81
2022/04/01 13:34:55;;;;;;;;;;;14.50;80.00;;;;;;5021753;28;19910;-81
2022/04/01 13:37:21;;;;;;;;;;;14.60;80.90;;;;;;5023240;28;20001;-80
2022/04/01 13:39:46;;;;;;;;;;;13.20;78.90;;;;;;5003651;28;19989;-81
2022/04/01 13:42:12;;;;;;;;;;;14.60;80.60;;;;;;5022187;28;19909;-80
2022/04/01 13:44:38;;;;;;;;;;;14.70;78.40;;;;;;5021425;28;19910;-81
2022/04/01 13:47:05;;;;;;;;;;;14.60;78.60;;;;;;5004643;28;20189;-81
2022/04/01 13:49:30;;;;;;;;;;;14.70;79.10;;;;;;5004226;28;19932;-80
2022/04/01 13:51:56;;;;;;;;;;;14.80;79.30;;;;;;5021524;28;20287;-81
2022/04/01 13:54:22;;;;;;;;;;;14.80;80.80;;;;;;5021061;28;20383;-81
2022/04/01 13:56:47;;;;;;;;;;;14.90;80.60;;;;;;5020416;28;19909;-81
2022/04/01 13:59:13;;;;;;;;;;;14.90;80.00;;;;;;5022630;28;19913;-82
2022/04/01 14:01:39;;;;;;;;;;;15.10;79.30;;;;;;5003798;28;20403;-80
2022/04/01 14:04:07;;;;;;;;;;;15.30;79.10;;;;;;5022629;28;19917;-82
2022/04/01 14:06:34;;;;;;;;;;;15.40;79.40;;;;;;5021065;28;19909;-82
2022/04/01 14:09:02;;;;;;;;;;;15.30;75.10;;;;;;5019822;28;19909;-81
2022/04/01 14:11:27;;;;;;;;;;;15.20;75.70;;;;;;5019767;28;19917;-81
2022/04/01 14:13:53;;;;;;;;;;;15.40;76.30;;;;;;5019952;28;19924;-80
2022/04/01 14:16:19;;;;;;;;;;;15.40;76.10;;;;;;5003520;28;20272;-81
2022/04/01 14:18:44;;;;;;;;;;;14.60;75.70;;;;;;5020364;28;20109;-81
2022/04/01 14:21:10;;;;;;;;;;;15.20;75.10;;;;;;5002678;28;19935;-82
2022/04/01 14:23:36;;;;;;;;;;;15.10;74.50;;;;;;5023946;28;20334;-82
2022/04/01 14:26:06;;;;;;;;;;;14.90;73.50;;;;;;5021184;28;19909;-81
2022/04/01 14:28:34;;;;;;;;;;;14.80;74.10;;;;;;5019827;28;19917;-82
2022/04/01 14:31:00;;;;;;;;;;;14.70;73.70;;;;;;5020138;28;20074;-83
2022/04/01 14:33:27;;;;;;;;;;;14.70;75.00;;;;;;5021109;28;20007;-85
2022/04/01 14:35:52;;;;;;;;;;;11.60;73.70;;;;;;5001927;28;20350;-79
2022/04/01 14:38:21;;;;;;;;;;;14.50;75.60;;;;;;5021181;28;20299;-83
2022/04/01 14:40:48;;;;;;;;;;;12.50;74.10;;;;;;5019682;28;19909;-84